• Join FlightAware (Why Join?)
  • Login
  • US Flag 
01:50PM EDT


 

Airport Tracker/Info


-or-


 

Live Flight TrackerFlight Track Log ✈ ASQ4283 ✈ 29-Jun-2013 ✈ KORD - KGRR

Flight Track Log - Related Links

Times and Time Zones

All times are in EDT time to prevent confusion due to time zone crossing. See the ASQ4283 flight status page for this flight to view local times or setup timezone preferences in your user account.

Time Position Orientation Groundspeed Altitude Reporting Facility
EDT Latitude Longitude Course Direction KTS MPH feet Rate Location/Type
12:03PM 42.0383 -87.9156 66° East 178 205 3,000  Level Chicago Center
12:04PM 42.0969 -87.8978 13° North 210 242 4,600 1,260 Climbing Chicago Center
12:05PM 42.0718 -87.6122 62° Northeast  Level FlightAware Approximate
12:05PM 42.1678 -87.8728 15° North 254 292 5,700  Level Chicago Center
12:06PM 42.1067 -87.5142 59° Northeast  Level FlightAware Approximate
12:06PM 42.1972 -87.7928 64° Northeast 265 305 7,900  Level Chicago Center
12:07PM 42.1489 -87.4192 59° Northeast  Level FlightAware Approximate
12:07PM 42.2081 -87.6911 82° East 273 314 10,000  Level Chicago Center
12:08PM 42.1828 -87.3184 66° East  Level FlightAware Approximate
12:08PM 42.2236 -87.5542 81° East 314 361 10,900  Level Chicago Center
12:09PM 42.2389 -87.4236 81° East 348 400 12,100 1,260 Climbing Chicago Center
12:10PM 42.2536 -87.2900 81° East 359 413 13,600 1,440 Climbing Chicago Center
12:11PM 42.2678 -87.1567 82° East 361 415 15,100 1,440 Climbing Chicago Center
12:12PM 42.2797 -87.0239 83° East 358 412 16,600 1,740 Climbing Chicago Center
12:13PM 42.2875 -86.8628 86° East 361 415 18,700 1,140 Climbing Chicago Center
12:14PM 42.2925 -86.7233 87° East 373 429 19,000 120 Climbing Chicago Center
12:15PM 42.2983 -86.5789 87° East 405 466 19,000  Level Chicago Center
12:16PM 42.3042 -86.4008 87° East 415 478 19,000  Level Chicago Center
12:17PM 42.3108 -86.2447 87° East 419 482 19,000 -300 Level Chicago Center
12:18PM 42.3392 -86.0947 76° East 424 488 18,500 -1,800 Descending Chicago Center
12:19PM 42.4258 -85.9922 41° Northeast 406 467 15,400 -3,000 Descending Chicago Center
12:20PM 42.5075 -85.9072 37° Northeast 389 448 12,400 -2,520 Descending Chicago Center
12:21PM 42.5578 -85.7736 63° Northeast 336 387 10,300 -2,160 Descending Chicago Center
12:22PM 42.5897 -85.6767 66° East 301 346 8,000 -2,340 Descending Chicago Center
12:23PM 42.6203 -85.5883 65° Northeast 274 315 5,500 -2,460 Descending Chicago Center
12:24PM 42.6519 -85.5075 62° Northeast 255 293 3,000 -2,460 Descending Chicago Center